createdAt,value
2023-04-30T00:00:59.964Z,52.33
2023-04-30T00:02:00.513Z,52.58
2023-04-30T00:03:00.763Z,52.19
2023-04-30T00:04:01.149Z,52.46
2023-04-30T00:05:01.524Z,52.45
2023-04-30T00:06:01.774Z,52.06
2023-04-30T00:07:02.626Z,52.4
2023-04-30T00:08:02.764Z,51.9
2023-04-30T00:09:03.354Z,51.83
2023-04-30T00:10:03.741Z,51.8
2023-04-30T00:11:04.058Z,52.04
2023-04-30T00:12:04.781Z,51.84
2023-04-30T00:13:04.577Z,51.74
2023-04-30T00:14:04.898Z,51.81
2023-04-30T00:15:06.347Z,51.84
2023-04-30T00:16:06.267Z,52.49
2023-04-30T00:17:05.999Z,52.12
2023-04-30T00:18:06.593Z,51.9
2023-04-30T00:19:06.802Z,51.74
2023-04-30T00:20:08.114Z,51.7
2023-04-30T00:21:07.669Z,52.12
2023-04-30T00:22:08.438Z,52.61
2023-04-30T00:23:08.450Z,53.03
2023-04-30T00:24:08.860Z,52.96
2023-04-30T00:25:10.001Z,52.84
2023-04-30T00:26:09.587Z,52.82
2023-04-30T00:27:09.912Z,52.35
2023-04-30T00:28:10.268Z,52.2
2023-04-30T00:29:11.351Z,52.49
2023-04-30T00:30:12.127Z,52.75
2023-04-30T00:31:11.556Z,52.62
2023-04-30T00:32:12.092Z,53.25
2023-04-30T00:33:12.334Z,53.09
2023-04-30T00:34:12.548Z,53.21
2023-04-30T00:35:13.073Z,53.16
2023-04-30T00:36:13.344Z,53.1
2023-04-30T00:37:13.855Z,53.35
2023-04-30T00:38:14.283Z,53.7
2023-04-30T00:39:14.379Z,53.27
2023-04-30T00:40:15.412Z,53.55
2023-04-30T00:41:16.455Z,53.74
2023-04-30T00:42:15.639Z,54
2023-04-30T00:43:16.143Z,54.03
2023-04-30T00:44:16.456Z,53.89
2023-04-30T00:45:17.286Z,53.5
2023-04-30T00:46:17.613Z,53.48
2023-04-30T00:47:18.114Z,53.85
2023-04-30T00:48:18.957Z,53.96
2023-04-30T00:49:18.344Z,53.8
2023-04-30T00:50:18.685Z,53.6
2023-04-30T00:51:20.107Z,53.41
2023-04-30T00:52:19.705Z,53.58
2023-04-30T00:53:20.480Z,53.66
2023-04-30T00:54:21.028Z,53.72
2023-04-30T00:55:21.038Z,53.94
2023-04-30T00:56:21.174Z,53.8
2023-04-30T00:57:22.689Z,53.71
2023-04-30T00:58:22.500Z,53.48
2023-04-30T00:59:22.915Z,53.59
2023-04-30T01:00:22.717Z,54.1
2023-04-30T01:01:27.155Z,53.77
2023-04-30T01:02:24.917Z,53.43
2023-04-30T01:03:25.195Z,53.52
2023-04-30T01:04:26.227Z,53.8
2023-04-30T01:05:26.336Z,53.52
2023-04-30T01:06:26.544Z,53.57
2023-04-30T01:07:26.648Z,53.96
2023-04-30T01:08:26.896Z,54.21
2023-04-30T01:09:27.495Z,54.04
2023-04-30T01:10:32.609Z,54.2
2023-04-30T01:13:45.221Z,54.1
2023-04-30T01:19:53.379Z,53.95
2023-04-30T01:21:05.330Z,54.24
2023-04-30T01:22:04.529Z,54.03
2023-04-30T01:28:23.404Z,54.13
2023-04-30T01:29:24.538Z,54.17
2023-04-30T01:30:24.130Z,53.93
2023-04-30T01:31:24.577Z,54.27
2023-04-30T01:32:24.212Z,54.54
2023-04-30T01:33:24.087Z,54.38
2023-04-30T01:34:24.790Z,54.65
2023-04-30T01:57:32.873Z,54.85
2023-04-30T01:58:30.776Z,54.73
2023-04-30T01:59:34.769Z,55.02
2023-04-30T02:00:32.129Z,54.76
2023-04-30T02:01:33.498Z,54.43
2023-04-30T02:02:33.008Z,54.5
2023-04-30T02:03:33.617Z,54.58
2023-04-30T02:04:33.676Z,54.75
2023-04-30T02:05:34.315Z,54.52
2023-04-30T02:06:34.597Z,54.46
2023-04-30T02:08:36.508Z,54.24
2023-04-30T02:09:36.928Z,54.45
2023-04-30T02:10:37.304Z,54.52
2023-04-30T02:11:37.610Z,55.03
2023-04-30T02:12:38.597Z,54.61
2023-04-30T02:13:38.444Z,54.63
2023-04-30T02:14:38.627Z,54.77
2023-04-30T02:15:39.292Z,54.93
2023-04-30T02:16:39.530Z,55.08
2023-04-30T02:17:39.932Z,55.48
2023-04-30T02:18:40.236Z,55.34
2023-04-30T02:19:40.730Z,55.13
2023-04-30T02:20:41.161Z,54.99
2023-04-30T02:21:41.580Z,54.76
2023-04-30T02:22:41.943Z,54.84
2023-04-30T02:23:42.312Z,55.35
2023-04-30T02:24:42.524Z,55.3
2023-04-30T02:25:43.036Z,55.47
2023-04-30T02:26:43.352Z,55.86
2023-04-30T02:27:43.861Z,55.9
2023-04-30T02:28:44.088Z,55.73
2023-04-30T02:29:44.433Z,55.53
2023-04-30T02:30:45.114Z,55.04
2023-04-30T02:31:45.369Z,54.68
2023-04-30T02:32:45.768Z,55.05
2023-04-30T02:33:46.020Z,55.49
2023-04-30T02:34:46.360Z,55.1
2023-04-30T02:35:47.094Z,55.12
2023-04-30T02:36:47.204Z,55.28
2023-04-30T02:37:47.521Z,55.61
2023-04-30T02:38:47.931Z,55.27
2023-04-30T02:39:48.341Z,55.03
2023-04-30T02:40:48.715Z,55.29
2023-04-30T02:41:49.025Z,55.33
2023-04-30T02:42:49.494Z,55.2
2023-04-30T02:43:50.254Z,55.29
2023-04-30T02:44:50.232Z,55.46
2023-04-30T02:45:50.980Z,55.19
2023-04-30T02:46:51.270Z,55.28
2023-04-30T02:47:51.421Z,55.45
2023-04-30T02:48:52.512Z,55.63
2023-04-30T02:49:52.463Z,55.44
2023-04-30T02:50:52.619Z,55.39
2023-04-30T02:51:53.547Z,55.95
2023-04-30T02:52:53.456Z,56.36
2023-04-30T02:53:53.824Z,56.28
2023-04-30T02:54:54.196Z,55.8
2023-04-30T02:55:54.639Z,55.82
2023-04-30T02:56:55.017Z,55.74
2023-04-30T02:57:55.332Z,56.08
2023-04-30T02:58:55.642Z,55.55
2023-04-30T02:59:56.469Z,55.78
2023-04-30T03:00:56.524Z,56.37
2023-04-30T03:01:56.833Z,55.83
2023-04-30T03:02:57.265Z,55.71
2023-04-30T03:03:57.612Z,56.07
2023-04-30T03:04:58.034Z,56.77
2023-04-30T03:05:58.407Z,56.31
2023-04-30T03:06:58.660Z,56.77
2023-04-30T03:07:59.187Z,56.62
2023-04-30T03:09:00.215Z,56.8
2023-04-30T03:09:59.753Z,56.69
2023-04-30T03:11:00.839Z,56.77
2023-04-30T03:12:00.739Z,56.31
2023-04-30T03:13:00.958Z,56.24
2023-04-30T03:14:01.463Z,56.68
2023-04-30T03:15:01.992Z,57.08
2023-04-30T03:16:04.090Z,57
2023-04-30T03:17:02.463Z,56.56
2023-04-30T03:18:02.996Z,56.49
2023-04-30T03:19:03.466Z,56.69
2023-04-30T03:20:04.278Z,56.79
2023-04-30T03:21:04.528Z,56.93
2023-04-30T03:22:04.656Z,57.33
2023-04-30T03:23:04.905Z,57.21
2023-04-30T03:24:05.949Z,57.19
2023-04-30T03:25:06.874Z,57.42
2023-04-30T03:26:06.288Z,57.44
2023-04-30T03:27:06.314Z,57.26
2023-04-30T03:28:06.886Z,57.55
2023-04-30T03:29:07.210Z,57.37
2023-04-30T03:30:08.545Z,57.38
2023-04-30T03:31:08.194Z,57.42
2023-04-30T03:32:08.349Z,57.15
2023-04-30T03:33:08.862Z,57.63
2023-04-30T03:34:09.602Z,57.69
2023-04-30T03:35:09.924Z,57.59
2023-04-30T03:36:10.118Z,58.48
2023-04-30T03:37:10.447Z,58.18
2023-04-30T03:38:10.757Z,58.87
2023-04-30T03:39:11.168Z,59.03
2023-04-30T03:40:12.242Z,58.45
2023-04-30T03:41:12.429Z,58.51
2023-04-30T03:42:12.779Z,58.21
2023-04-30T03:43:13.267Z,58.98
2023-04-30T03:44:13.546Z,58.35
2023-04-30T03:45:14.068Z,58.11
2023-04-30T03:46:14.517Z,58.55
2023-04-30T03:47:14.913Z,59.96
2023-04-30T03:48:15.171Z,59.86
2023-04-30T03:49:16.357Z,59.63
2023-04-30T03:50:18.203Z,58.94
2023-04-30T03:51:16.813Z,58.76
2023-04-30T03:52:16.786Z,59.4
2023-04-30T03:53:17.300Z,59.46
2023-04-30T03:54:17.350Z,60.25
2023-04-30T03:55:18.032Z,60.79
2023-04-30T03:56:18.351Z,59.96
2023-04-30T03:57:18.750Z,60
2023-04-30T03:58:19.282Z,59.72
2023-04-30T03:59:19.488Z,59.77
2023-04-30T04:00:20.219Z,59.87
2023-04-30T04:01:20.433Z,59.11
2023-04-30T04:02:20.770Z,58.97
2023-04-30T04:03:21.364Z,59.64
2023-04-30T04:04:21.408Z,60.34
2023-04-30T04:05:21.893Z,60.31
2023-04-30T04:06:22.880Z,60.48
2023-04-30T04:07:23.231Z,61.79
2023-04-30T04:08:23.534Z,60.71
2023-04-30T04:09:23.969Z,59.62
2023-04-30T04:10:24.390Z,60.57
2023-04-30T04:11:24.804Z,61.35
2023-04-30T04:12:25.156Z,60.38
2023-04-30T04:13:25.686Z,60.52
2023-04-30T04:14:25.794Z,61
2023-04-30T04:15:26.076Z,61.35
2023-04-30T04:16:26.842Z,61.05
2023-04-30T04:17:27.335Z,60.99
2023-04-30T04:18:27.292Z,61.14
2023-04-30T04:19:28.432Z,61.49
2023-04-30T04:20:28.124Z,63.01
2023-04-30T04:21:28.650Z,63.59
2023-04-30T04:22:28.856Z,61.98
2023-04-30T04:23:29.373Z,61.53
2023-04-30T04:24:29.798Z,61.19
2023-04-30T04:25:30.221Z,61.52
2023-04-30T04:26:30.530Z,61.51
2023-04-30T04:27:30.847Z,61.96
2023-04-30T04:28:31.267Z,62.28
2023-04-30T04:29:31.723Z,62.1
2023-04-30T04:30:31.930Z,62.43
2023-04-30T04:31:33.250Z,63.15
2023-04-30T04:32:32.938Z,63.16
2023-04-30T04:33:33.246Z,63.5
2023-04-30T04:34:33.863Z,63.87
2023-04-30T04:35:34.059Z,64.6
2023-04-30T04:36:34.578Z,65.57
2023-04-30T04:37:35.198Z,65.78
2023-04-30T04:38:35.050Z,64.6
2023-04-30T04:39:35.525Z,66.11
2023-04-30T04:40:35.833Z,67.41
2023-04-30T04:41:36.301Z,68.31
2023-04-30T04:42:36.685Z,66.92
2023-04-30T04:43:37.152Z,66.99
2023-04-30T04:44:37.492Z,67.69
2023-04-30T04:45:37.920Z,68.17
2023-04-30T04:46:38.504Z,69.88
2023-04-30T04:47:38.621Z,70.95
2023-04-30T04:48:38.981Z,72.54
2023-04-30T04:49:40.152Z,72.94
2023-04-30T04:50:39.897Z,74.15
2023-04-30T04:51:40.228Z,74.6
2023-04-30T04:52:40.579Z,75.87
2023-04-30T04:53:41.036Z,75.13
2023-04-30T04:54:41.381Z,79.08
2023-04-30T04:55:41.848Z,79.89
2023-04-30T04:56:42.189Z,80.9
2023-04-30T04:57:42.615Z,81.95
2023-04-30T04:58:43.085Z,83.05
2023-04-30T04:59:43.339Z,83.2
2023-04-30T05:00:44.461Z,84.39
2023-04-30T05:01:44.094Z,85.44
2023-04-30T05:02:44.549Z,86.54
2023-04-30T05:03:44.954Z,86.89
2023-04-30T05:04:45.715Z,87.96
2023-04-30T05:05:45.617Z,88.14
2023-04-30T05:06:46.006Z,88.35
2023-04-30T05:07:46.359Z,87.93
2023-04-30T05:08:46.676Z,88.61
2023-04-30T05:09:47.297Z,88.32
2023-04-30T05:10:47.445Z,89.64
2023-04-30T05:11:47.811Z,90.7
2023-04-30T05:12:48.237Z,91.36
2023-04-30T05:13:48.507Z,90.65
2023-04-30T05:14:49.111Z,90.73
2023-04-30T05:15:53.500Z,90.84
2023-04-30T05:16:50.924Z,91.69
2023-04-30T05:17:51.396Z,93.2
2023-04-30T05:18:51.652Z,93.9
2023-04-30T05:19:53.745Z,94.17
2023-04-30T05:20:52.475Z,93.73
2023-04-30T05:21:52.804Z,94.29
2023-04-30T05:22:53.221Z,94.68
2023-04-30T05:23:53.469Z,94.55
2023-04-30T05:24:54.062Z,94.75
2023-04-30T05:25:54.153Z,95.13
2023-04-30T05:26:54.688Z,95.05
2023-04-30T05:27:55.098Z,95.15
2023-04-30T05:28:55.255Z,95.54
2023-04-30T05:29:56.106Z,96.25
2023-04-30T05:30:56.018Z,96.38
2023-04-30T05:31:56.669Z,96.47
2023-04-30T05:32:57.874Z,96.3
2023-04-30T05:33:57.276Z,96.46
2023-04-30T05:34:57.685Z,96.4
2023-04-30T05:35:58.016Z,95.49
2023-04-30T05:36:58.438Z,95.54
2023-04-30T05:37:58.642Z,95.78
2023-04-30T05:38:59.120Z,95.58
2023-04-30T05:39:59.789Z,95.38
2023-04-30T05:41:00.612Z,95.34
2023-04-30T05:42:00.304Z,95.46
2023-04-30T05:43:00.626Z,95.33
2023-04-30T05:44:01.038Z,95.6
2023-04-30T05:45:02.165Z,95.8
2023-04-30T05:46:01.775Z,95.6
2023-04-30T05:47:02.175Z,95.74
2023-04-30T05:48:02.540Z,95.36
2023-04-30T05:49:03.117Z,95.5
2023-04-30T05:50:04.652Z,95.37
2023-04-30T05:51:03.760Z,95.65
2023-04-30T05:52:04.570Z,94.96
2023-04-30T05:53:04.284Z,94.75
2023-04-30T05:54:04.678Z,94.59
2023-04-30T05:55:05.765Z,94.99
2023-04-30T05:56:05.972Z,94.91
2023-04-30T05:57:05.822Z,95.09
2023-04-30T05:58:06.258Z,95.24
2023-04-30T05:59:06.558Z,95.61
2023-04-30T06:00:08.144Z,95.11
2023-04-30T06:01:07.287Z,94.98
2023-04-30T06:02:07.844Z,95.07
2023-04-30T06:03:08.100Z,94.51
2023-04-30T06:04:08.447Z,94.79
2023-04-30T06:05:09.525Z,94.83
2023-04-30T06:06:09.415Z,94.79
2023-04-30T06:07:09.513Z,94.77
2023-04-30T06:08:09.816Z,95.4
2023-04-30T06:09:10.340Z,95.96
2023-04-30T06:10:11.085Z,95.97
2023-04-30T06:11:12.483Z,95.58
2023-04-30T06:12:11.610Z,95.92
2023-04-30T06:13:11.988Z,95.99
2023-04-30T06:14:12.201Z,96.02
2023-04-30T06:15:12.622Z,96.11
2023-04-30T06:16:13.046Z,95.67
2023-04-30T06:17:13.333Z,95.53
2023-04-30T06:18:13.760Z,95.56
2023-04-30T06:19:13.967Z,95.51
2023-04-30T06:20:14.520Z,95.15
2023-04-30T06:21:14.805Z,94.79
2023-04-30T06:22:15.106Z,94.52
2023-04-30T06:23:15.491Z,94.4
2023-04-30T06:24:15.819Z,94.4
2023-04-30T06:25:16.367Z,94.45
2023-04-30T06:26:16.563Z,94.74
2023-04-30T06:27:17.035Z,94.83
2023-04-30T06:28:17.205Z,94.36
2023-04-30T06:29:17.508Z,94.23
2023-04-30T06:30:18.202Z,94.02
2023-04-30T06:31:18.485Z,94.53
2023-04-30T06:32:19.375Z,94.14
2023-04-30T06:33:19.083Z,93.46
2023-04-30T06:34:20.042Z,93.35
2023-04-30T06:35:19.901Z,94.1
2023-04-30T06:36:20.324Z,94.36
2023-04-30T06:37:20.658Z,94.48
2023-04-30T06:38:21.145Z,94.63
2023-04-30T06:39:21.269Z,94.45
2023-04-30T06:40:21.798Z,94.57
2023-04-30T06:41:21.936Z,93.93
2023-04-30T06:42:22.468Z,94.17
2023-04-30T06:43:23.168Z,94.27
2023-04-30T06:44:23.343Z,94.17
2023-04-30T06:45:23.765Z,94.32
2023-04-30T06:46:23.984Z,94.22
2023-04-30T06:47:24.414Z,94.7
2023-04-30T06:48:24.813Z,94.77
2023-04-30T06:49:25.116Z,95.36
2023-04-30T06:50:25.731Z,95.7
2023-04-30T06:51:25.801Z,96.07
2023-04-30T06:52:26.287Z,96.21
2023-04-30T06:53:26.473Z,96.12
2023-04-30T06:54:26.856Z,96.22
2023-04-30T06:55:27.516Z,96.06
2023-04-30T06:56:27.726Z,95.47
2023-04-30T06:57:28.146Z,95.38
2023-04-30T06:58:28.446Z,95.72
2023-04-30T06:59:29.895Z,96.34
2023-04-30T07:00:29.270Z,96.21
2023-04-30T07:01:29.645Z,95.91
2023-04-30T07:02:30.124Z,96.22
2023-04-30T07:03:30.242Z,96.47
2023-04-30T07:04:30.697Z,96.76
2023-04-30T07:05:31.466Z,96.66
2023-04-30T07:06:31.435Z,96.98
2023-04-30T07:07:31.888Z,97.23
2023-04-30T07:08:32.097Z,97.43
2023-04-30T07:09:32.641Z,96.93
2023-04-30T07:10:32.880Z,96.55
2023-04-30T07:11:33.207Z,96.64
2023-04-30T07:12:33.681Z,96.78
2023-04-30T07:13:34.085Z,96.43
2023-04-30T07:14:34.596Z,96.33
2023-04-30T07:15:34.974Z,96.43
2023-04-30T07:16:35.235Z,95.77
2023-04-30T07:17:35.560Z,95.78
2023-04-30T07:18:35.963Z,95.44
2023-04-30T07:19:36.283Z,95.04
2023-04-30T07:20:36.599Z,95.35
2023-04-30T07:21:37.009Z,94.69
2023-04-30T07:22:37.352Z,94.42
2023-04-30T07:23:37.726Z,95.15
2023-04-30T07:24:38.248Z,94.93
2023-04-30T07:25:38.675Z,95.07
2023-04-30T07:26:38.872Z,94.67
2023-04-30T07:27:39.596Z,94.67
2023-04-30T07:28:39.703Z,93.97
2023-04-30T07:29:40.126Z,94.01
2023-04-30T07:30:40.871Z,94.19
2023-04-30T07:31:40.870Z,94.15
2023-04-30T07:32:42.196Z,94.1
2023-04-30T07:33:41.575Z,93.73
2023-04-30T07:34:42.316Z,94.26
2023-04-30T07:35:42.420Z,94.35
2023-04-30T07:36:42.591Z,93.78
2023-04-30T07:37:43.163Z,93.56
2023-04-30T07:38:43.608Z,93.57
2023-04-30T07:39:43.779Z,92.91
2023-04-30T07:40:44.291Z,93.19
2023-04-30T07:41:44.499Z,93.24
2023-04-30T07:42:45.136Z,92.52
2023-04-30T07:43:45.403Z,92.65
2023-04-30T07:44:45.856Z,93.03
2023-04-30T07:45:46.407Z,93.17
2023-04-30T07:46:46.588Z,93.18
2023-04-30T07:47:46.994Z,93
2023-04-30T07:48:47.315Z,92.44
2023-04-30T07:49:48.021Z,91.96
2023-04-30T07:50:50.561Z,91.43
2023-04-30T07:51:48.875Z,91.46
2023-04-30T07:52:52.056Z,91.54
2023-04-30T07:53:49.507Z,92.54
2023-04-30T07:54:49.872Z,92.4
2023-04-30T07:55:50.332Z,91.61
2023-04-30T07:56:50.747Z,91.35
2023-04-30T07:57:51.164Z,91.76
2023-04-30T07:58:51.580Z,92.5
2023-04-30T07:59:53.173Z,91.9
2023-04-30T08:00:52.257Z,91.51
2023-04-30T08:01:52.739Z,91.78
2023-04-30T08:02:53.264Z,91.94
2023-04-30T08:03:53.410Z,91.61
2023-04-30T08:04:53.721Z,91.44
2023-04-30T08:05:54.319Z,91.61
2023-04-30T08:06:54.678Z,91.61
2023-04-30T08:07:55.074Z,91.92
2023-04-30T08:08:55.336Z,91.6
2023-04-30T08:09:56.012Z,91.86
2023-04-30T08:10:56.273Z,92.2
2023-04-30T08:11:56.784Z,91.8
2023-04-30T08:12:56.958Z,91.92
2023-04-30T08:13:57.411Z,91.81
2023-04-30T08:15:02.904Z,92.21
2023-04-30T08:16:00.229Z,91.82
2023-04-30T08:17:00.800Z,91.97
2023-04-30T08:18:01.110Z,90.68
2023-04-30T08:19:01.400Z,90.36
2023-04-30T08:20:03.916Z,90.5
2023-04-30T08:21:02.393Z,90.72
2023-04-30T08:22:02.697Z,90.31
2023-04-30T08:23:03.077Z,90.3
2023-04-30T08:24:03.728Z,89.78
2023-04-30T08:25:04.350Z,90.03
2023-04-30T08:26:04.426Z,89.96
2023-04-30T08:27:04.833Z,89.22
2023-04-30T08:28:06.431Z,88.5
2023-04-30T08:29:05.511Z,89.03
2023-04-30T08:30:07.560Z,88.66
2023-04-30T08:31:06.279Z,86.89
2023-04-30T08:32:06.813Z,87.47
2023-04-30T08:33:07.809Z,87.47
2023-04-30T08:34:07.384Z,88.41
2023-04-30T08:35:09.038Z,89.43
2023-04-30T08:36:08.320Z,88.82
2023-04-30T08:37:08.522Z,89.55
2023-04-30T08:38:09.044Z,89.25
2023-04-30T08:39:09.464Z,88.27
2023-04-30T08:40:10.597Z,87.77
2023-04-30T08:41:12.897Z,87.78
2023-04-30T08:42:14.707Z,88.53
2023-04-30T08:43:13.011Z,86.69
2023-04-30T08:44:12.457Z,87.14
2023-04-30T08:45:13.280Z,87.48
2023-04-30T08:46:14.459Z,87.27
2023-04-30T08:47:14.669Z,85.8
2023-04-30T08:48:15.976Z,85.08
2023-04-30T08:49:14.394Z,85.75
2023-04-30T08:50:15.165Z,85.9
2023-04-30T08:51:16.154Z,86.81
2023-04-30T08:52:16.095Z,86.41
2023-04-30T08:53:17.846Z,85.74
2023-04-30T08:54:18.014Z,86.25
2023-04-30T08:55:16.982Z,86.22
2023-04-30T08:56:17.565Z,86.72
2023-04-30T08:57:18.657Z,87.01
2023-04-30T08:58:18.185Z,86.28
2023-04-30T08:59:18.604Z,86.51
2023-04-30T09:00:19.270Z,86.08
2023-04-30T09:01:20.361Z,86.64
2023-04-30T09:02:20.139Z,85.5
2023-04-30T09:03:20.349Z,85.75
2023-04-30T09:04:20.692Z,85.96
2023-04-30T09:05:20.974Z,86.85
2023-04-30T09:06:21.460Z,86.41
2023-04-30T09:07:24.387Z,86.07
2023-04-30T09:10:25.438Z,84.55
2023-04-30T09:12:27.616Z,85.37
2023-04-30T09:14:33.035Z,85.76
2023-04-30T09:15:35.129Z,85.11
2023-04-30T09:17:37.074Z,85.53
2023-04-30T09:18:40.091Z,85.87
2023-04-30T09:19:37.933Z,86.2
2023-04-30T09:20:38.919Z,85.74
2023-04-30T09:21:38.705Z,85.88
2023-04-30T09:22:40.884Z,85.66
2023-04-30T09:24:48.870Z,84.78
2023-04-30T09:25:46.361Z,85.08
2023-04-30T09:26:47.660Z,86.16
2023-04-30T09:27:47.249Z,85.85
2023-04-30T09:28:59.950Z,86.1
2023-04-30T09:29:52.716Z,86.98
2023-04-30T09:30:53.282Z,86.45
2023-04-30T09:32:55.892Z,84.52
2023-04-30T09:33:55.595Z,84.27
2023-04-30T09:34:56.322Z,84.38
2023-04-30T09:35:56.397Z,82.63
2023-04-30T09:36:57.873Z,82
2023-04-30T09:37:59.500Z,81.22
2023-04-30T09:39:08.925Z,81.98
2023-04-30T09:40:03.211Z,83.11
2023-04-30T09:41:02.824Z,82.35
2023-04-30T09:42:12.446Z,80.38
2023-04-30T09:43:05.269Z,79.45
2023-04-30T09:44:05.579Z,79.42
2023-04-30T09:45:06.513Z,80.81
2023-04-30T09:46:06.527Z,81.34
2023-04-30T09:47:12.568Z,80.23
2023-04-30T09:48:16.986Z,78.62
2023-04-30T09:49:19.753Z,77.03
2023-04-30T09:50:18.965Z,77.59
2023-04-30T09:51:18.120Z,77.45
2023-04-30T09:52:19.632Z,77.15
2023-04-30T09:53:19.621Z,77.17
2023-04-30T09:54:20.961Z,77.71
2023-04-30T09:55:21.964Z,77.34
2023-04-30T09:56:24.919Z,77.89
2023-04-30T09:57:24.779Z,75.72
2023-04-30T09:58:26.282Z,74.74
2023-04-30T09:59:31.846Z,77.27
2023-04-30T10:00:24.734Z,78.06
2023-04-30T10:01:29.133Z,77.76
2023-04-30T10:02:27.947Z,77.52
2023-04-30T10:03:27.672Z,77.57
2023-04-30T10:04:31.217Z,74.88
2023-04-30T10:05:28.872Z,75.73
2023-04-30T10:06:29.130Z,77.43
2023-04-30T10:07:36.626Z,76.1
2023-04-30T10:08:41.073Z,76.3
2023-04-30T10:09:51.014Z,76.59
2023-04-30T10:10:47.436Z,75.64
2023-04-30T10:11:45.799Z,75.97
2023-04-30T10:12:53.122Z,75.73
2023-04-30T10:14:57.807Z,75.39
2023-04-30T10:15:54.242Z,75.83
2023-04-30T10:16:58.830Z,76.16
2023-04-30T10:20:04.300Z,73.75
2023-04-30T10:21:05.113Z,74.73
2023-04-30T10:22:02.692Z,73.67
2023-04-30T10:23:02.979Z,73.27
2023-04-30T10:24:04.926Z,73.79
2023-04-30T10:25:04.546Z,74.01
2023-04-30T10:26:04.533Z,73.47
2023-04-30T10:27:05.167Z,71.66
2023-04-30T10:28:07.514Z,72.04
2023-04-30T10:29:06.940Z,72.48
2023-04-30T10:30:10.090Z,74.06
2023-04-30T10:31:08.461Z,72.36
2023-04-30T10:32:08.655Z,77.09
2023-04-30T10:38:24.441Z,76.88
2023-04-30T10:39:23.640Z,74.37
2023-04-30T10:40:23.063Z,72.81
2023-04-30T10:41:26.250Z,72.35
2023-04-30T10:42:24.091Z,73.27
2023-04-30T10:43:25.644Z,73.53
2023-04-30T10:44:25.865Z,72.68
2023-04-30T10:46:30.528Z,73.19
2023-04-30T10:47:31.474Z,69.98
2023-04-30T10:48:34.471Z,68.19
2023-04-30T10:49:32.045Z,60.25
2023-04-30T10:50:32.753Z,60.75
2023-04-30T10:52:33.585Z,63.47
2023-04-30T10:53:37.128Z,64.43
2023-04-30T10:54:36.425Z,64.75
2023-04-30T10:55:48.552Z,68.75
2023-04-30T10:56:35.917Z,67.05
2023-04-30T10:57:43.901Z,64.75
2023-04-30T10:58:40.577Z,63.84
2023-04-30T10:59:38.244Z,62.53
2023-04-30T11:00:38.757Z,61.93
2023-04-30T11:02:46.682Z,58.69
2023-04-30T11:05:46.572Z,49.62
2023-04-30T11:07:51.359Z,49.39
2023-04-30T11:08:50.170Z,51.49
2023-04-30T11:09:57.190Z,49.77
2023-04-30T11:11:00.451Z,51.92
2023-04-30T11:12:05.352Z,49.62
2023-04-30T11:13:07.104Z,50.15
2023-04-30T11:14:04.645Z,49.41
2023-04-30T11:15:13.838Z,51.73
2023-04-30T11:16:06.585Z,48.84
2023-04-30T11:17:07.429Z,45.36
2023-04-30T11:18:08.758Z,45.78
2023-04-30T11:19:16.925Z,49.35
2023-04-30T11:20:13.200Z,46.69
2023-04-30T11:21:11.168Z,46.52
2023-04-30T11:22:22.919Z,48.34
2023-04-30T11:23:22.089Z,45.79
2023-04-30T11:24:20.222Z,45
2023-04-30T11:25:22.305Z,43.78
2023-04-30T11:26:20.398Z,45.57
2023-04-30T11:27:24.498Z,44.85
2023-04-30T11:28:26.921Z,44.92
2023-04-30T11:29:24.876Z,45.31
2023-04-30T11:30:25.238Z,42.52
2023-04-30T11:31:33.598Z,43.88
2023-04-30T11:32:39.032Z,45.75
2023-04-30T11:33:28.437Z,45.51
2023-04-30T11:34:26.898Z,44.88
2023-04-30T11:35:29.267Z,43.02
2023-04-30T11:36:31.629Z,40.6
2023-04-30T11:39:36.943Z,39.97
2023-04-30T11:40:36.060Z,40.37
2023-04-30T11:42:39.258Z,44.21
2023-04-30T11:43:38.430Z,41.58
2023-04-30T11:44:38.893Z,41.37
2023-04-30T11:45:39.790Z,42.04
2023-04-30T11:46:42.396Z,41.09
2023-04-30T11:48:47.177Z,42.62
2023-04-30T11:49:44.847Z,43.05
2023-04-30T11:50:44.979Z,40.65
2023-04-30T11:51:49.589Z,42.26
2023-04-30T11:52:51.186Z,43.42
2023-04-30T11:53:50.205Z,38.95
2023-04-30T11:54:49.045Z,38.34
2023-04-30T11:55:49.456Z,39.76
2023-04-30T11:56:49.989Z,41.23
2023-04-30T11:57:55.452Z,39.42
2023-04-30T11:58:53.581Z,39.93
2023-04-30T11:59:53.562Z,40
2023-04-30T12:00:53.895Z,38.41
2023-04-30T12:01:54.396Z,38.95
2023-04-30T12:02:55.824Z,38.61
2023-04-30T12:03:56.786Z,38.46
2023-04-30T12:04:55.666Z,40.4
2023-04-30T12:05:56.031Z,39.62
2023-04-30T12:06:56.395Z,39.35
2023-04-30T12:09:00.526Z,40.92
2023-04-30T12:09:59.316Z,39.39
2023-04-30T12:10:59.690Z,38.36
2023-04-30T12:12:00.121Z,38.16
2023-04-30T12:13:00.378Z,38.81
2023-04-30T12:14:07.196Z,41.1
2023-04-30T12:16:07.753Z,39.38
2023-04-30T12:17:08.347Z,39.86
2023-04-30T12:18:14.462Z,41.02
2023-04-30T12:19:13.012Z,41.61
2023-04-30T12:20:14.298Z,41.73
2023-04-30T12:21:13.800Z,40.05
2023-04-30T12:22:13.289Z,40.42
2023-04-30T12:23:14.113Z,40.22
2023-04-30T12:24:15.266Z,40.86
2023-04-30T12:25:18.023Z,40.58
2023-04-30T12:26:15.684Z,40.52
2023-04-30T12:27:15.979Z,39.84
2023-04-30T12:28:16.352Z,40.57
2023-04-30T12:29:18.930Z,40.36
2023-04-30T12:30:20.817Z,40.43
2023-04-30T12:31:18.607Z,40.54
2023-04-30T12:32:19.486Z,39.66
2023-04-30T12:33:19.289Z,40.52
2023-04-30T12:34:19.519Z,40.13
2023-04-30T12:35:22.284Z,41.14
2023-04-30T12:36:20.869Z,40.9
2023-04-30T12:37:21.179Z,40.22
2023-04-30T12:38:21.184Z,40.2
2023-04-30T12:39:21.649Z,40.18
2023-04-30T12:40:27.174Z,40.13
2023-04-30T12:41:30.522Z,40.21
2023-04-30T12:42:32.671Z,41.54
2023-04-30T12:43:30.063Z,40.53
2023-04-30T12:44:30.610Z,40.94
2023-04-30T12:46:34.900Z,39.78
2023-04-30T12:47:38.953Z,40.71
2023-04-30T12:48:45.425Z,40.96
2023-04-30T12:49:37.937Z,40.88
2023-04-30T12:50:38.560Z,40.65
2023-04-30T12:51:42.468Z,40.17
2023-04-30T12:52:41.034Z,41.05
2023-04-30T12:53:49.274Z,40.67
2023-04-30T12:54:41.725Z,41.02
2023-04-30T12:55:42.128Z,41.53
2023-04-30T12:58:49.925Z,41.87
2023-04-30T12:59:59.975Z,42.42
2023-04-30T13:00:52.669Z,42.09
2023-04-30T13:01:52.916Z,41.25
2023-04-30T13:02:53.367Z,42.08
2023-04-30T13:03:54.157Z,42.56
2023-04-30T13:04:55.251Z,43.21
2023-04-30T13:05:55.001Z,43.42
2023-04-30T13:06:55.520Z,42.32
2023-04-30T13:08:02.425Z,41.75
2023-04-30T13:08:59.771Z,41.04
2023-04-30T13:10:00.410Z,40.9
2023-04-30T13:11:00.705Z,43.01
2023-04-30T13:12:01.317Z,41.41
2023-04-30T13:13:01.754Z,40.25
2023-04-30T13:14:02.062Z,41.6
2023-04-30T13:15:02.581Z,40.83
2023-04-30T13:16:03.165Z,40.69
2023-04-30T13:17:03.351Z,39.34
2023-04-30T13:18:03.885Z,40.36
2023-04-30T13:19:04.139Z,39.69
2023-04-30T13:20:05.550Z,41.82
2023-04-30T13:21:04.864Z,40.46
2023-04-30T13:22:05.319Z,40.56
2023-04-30T13:23:08.670Z,40.09
2023-04-30T13:24:06.632Z,40.63
2023-04-30T13:25:07.350Z,39.68
2023-04-30T13:26:06.997Z,39.29
2023-04-30T13:27:07.399Z,40.1
2023-04-30T13:28:08.102Z,39.77
2023-04-30T13:29:08.509Z,39.48
2023-04-30T13:30:10.797Z,38.47
2023-04-30T13:31:09.267Z,37.91
2023-04-30T13:32:09.643Z,37.82
2023-04-30T13:33:09.982Z,39.34
2023-04-30T13:34:10.487Z,38.8
2023-04-30T13:35:11.834Z,37.11
2023-04-30T13:36:11.340Z,37.68
2023-04-30T13:37:11.733Z,37.57
2023-04-30T13:38:12.157Z,39.04
2023-04-30T13:39:12.485Z,37.97
2023-04-30T13:40:13.087Z,38.16
2023-04-30T13:41:13.611Z,38.85
2023-04-30T13:42:16.544Z,38.92
2023-04-30T13:43:14.194Z,39.34
2023-04-30T13:44:15.577Z,38.48
2023-04-30T13:45:15.273Z,38.05
2023-04-30T13:46:15.647Z,39.15
2023-04-30T13:47:16.347Z,39.38
2023-04-30T13:48:16.099Z,38.73
2023-04-30T13:49:16.816Z,39
2023-04-30T13:50:16.994Z,38.96
2023-04-30T13:51:17.429Z,38.82
2023-04-30T13:52:17.992Z,40.22
2023-04-30T13:53:18.599Z,40.29
2023-04-30T13:54:18.568Z,39.62
2023-04-30T13:55:19.698Z,40.12
2023-04-30T13:56:19.594Z,39.82
2023-04-30T13:57:19.863Z,40.73
2023-04-30T13:58:20.370Z,40.19
2023-04-30T13:59:21.292Z,40.07
2023-04-30T14:00:21.507Z,41
2023-04-30T14:01:21.746Z,39.64
2023-04-30T14:02:21.995Z,40.77
2023-04-30T14:03:22.623Z,40.24
2023-04-30T14:04:22.896Z,39.31
2023-04-30T14:05:23.285Z,39.89
2023-04-30T14:06:23.534Z,39.11
2023-04-30T14:07:24.483Z,39.61
2023-04-30T14:08:24.536Z,39.13
2023-04-30T14:09:24.884Z,39.54
2023-04-30T14:10:25.261Z,39.23